Time;durP1;ratioP1;P1;durP2;ratioP2;P2;SDS_P1;SDS_P2;PMS_P1;PMS_P2;Temp;Humidity;BMP_temperature;BMP_pressure;BME280_temperature;BME280_humidity;BME280_pressure;Samples;Min_cycle;Max_cycle;Signal;HPM_P1;HPM_P2
2024/01/08 06:01:21;;;;;;;6.50;4.67;;;;;;;;;;5551507;23;20519;-74
2024/01/08 06:03:47;;;;;;;8.03;4.73;;;;;;;;;;4974985;28;20774;-74
2024/01/08 06:06:13;;;;;;;8.93;4.97;;;;;;;;;;4974634;28;20590;-73
2024/01/08 06:08:40;;;;;;;6.80;4.23;;;;;;;;;;4973408;28;20798;-74
2024/01/08 06:11:06;;;;;;;8.53;4.90;;;;;;;;;;4974492;28;20959;-74
2024/01/08 06:13:32;;;;;;;6.70;4.60;;;;;;;;;;4975148;28;20759;-73
2024/01/08 06:15:58;;;;;;;7.80;4.67;;;;;;;;;;4974512;28;20407;-73
2024/01/08 06:18:27;;;;;;;7.87;5.10;;;;;;;;;;4974592;28;20919;-72
2024/01/08 06:20:52;;;;;;;10.70;5.00;;;;;;;;;;4974555;28;20775;-72
2024/01/08 06:23:18;;;;;;;9.30;4.73;;;;;;;;;;4989333;28;20554;-72
2024/01/08 06:25:44;;;;;;;9.93;4.53;;;;;;;;;;4989130;28;20518;-73
2024/01/08 06:28:10;;;;;;;7.33;4.83;;;;;;;;;;4975135;28;20418;-72
2024/01/08 06:30:36;;;;;;;6.77;4.87;;;;;;;;;;4974296;28;20445;-73
2024/01/08 06:33:02;;;;;;;6.30;4.53;;;;;;;;;;4974092;28;20412;-73
2024/01/08 06:35:28;;;;;;;8.23;4.57;;;;;;;;;;4974194;28;20442;-73
2024/01/08 06:37:54;;;;;;;8.03;4.30;;;;;;;;;;4973940;28;20496;-72
2024/01/08 06:40:20;;;;;;;6.80;4.43;;;;;;;;;;4974039;28;20747;-73
2024/01/08 06:42:46;;;;;;;8.73;5.10;;;;;;;;;;4973690;28;20493;-73
2024/01/08 06:45:12;;;;;;;7.30;4.30;;;;;;;;;;4974004;28;20416;-73
2024/01/08 06:47:38;;;;;;;6.33;4.27;;;;;;;;;;4974294;28;20724;-73
2024/01/08 06:50:05;;;;;;;8.17;4.23;;;;;;;;;;4989003;28;20944;-74
2024/01/08 06:52:31;;;;;;;8.20;4.37;;;;;;;;;;4988590;28;20443;-73
2024/01/08 06:54:57;;;;;;;7.60;4.33;;;;;;;;;;4973827;28;20947;-73
2024/01/08 06:57:22;;;;;;;9.10;4.57;;;;;;;;;;4973855;28;20506;-73
2024/01/08 06:59:49;;;;;;;11.87;5.27;;;;;;;;;;4973860;28;20506;-73
2024/01/08 07:02:15;;;;;;;7.67;4.47;;;;;;;;;;4973690;28;20850;-74
2024/01/08 07:04:41;;;;;;;6.70;4.60;;;;;;;;;;4988374;28;20787;-74
2024/01/08 07:07:07;;;;;;;8.70;5.13;;;;;;;;;;4973540;28;20415;-74
2024/01/08 07:09:33;;;;;;;4.80;4.30;;;;;;;;;;4973578;28;20486;-74
2024/01/08 07:11:59;;;;;;;10.03;4.73;;;;;;;;;;4973649;28;21042;-74
2024/01/08 07:14:25;;;;;;;8.83;5.50;;;;;;;;;;4973670;28;20416;-74
2024/01/08 07:16:51;;;;;;;8.27;4.57;;;;;;;;;;4973478;28;20510;-74
2024/01/08 07:19:17;;;;;;;6.23;4.43;;;;;;;;;;4973305;28;20818;-74
2024/01/08 07:21:44;;;;;;;7.60;4.67;;;;;;;;;;4973494;28;20540;-73
2024/01/08 07:24:10;;;;;;;7.93;4.30;;;;;;;;;;4973420;28;20415;-74
2024/01/08 07:26:36;;;;;;;14.93;5.10;;;;;;;;;;4973391;28;20426;-73
2024/01/08 07:29:03;;;;;;;9.73;4.60;;;;;;;;;;4973471;28;20422;-74
2024/01/08 07:31:32;;;;;;;8.60;4.20;;;;;;;;;;4973210;28;20436;-73
2024/01/08 07:33:58;;;;;;;9.40;5.13;;;;;;;;;;4972932;28;20408;-73
2024/01/08 07:36:25;;;;;;;7.90;4.37;;;;;;;;;;4973482;28;20408;-74
2024/01/08 07:38:51;;;;;;;6.33;4.07;;;;;;;;;;4973190;28;20468;-74
2024/01/08 07:41:17;;;;;;;8.23;5.00;;;;;;;;;;4973382;28;20877;-73
2024/01/08 07:43:43;;;;;;;6.40;4.47;;;;;;;;;;4973139;28;20487;-73
2024/01/08 07:46:09;;;;;;;7.10;4.20;;;;;;;;;;4973463;28;20412;-74
2024/01/08 07:48:35;;;;;;;8.00;4.93;;;;;;;;;;4973041;28;20423;-74
2024/01/08 07:51:01;;;;;;;5.43;4.13;;;;;;;;;;4973093;28;20458;-74
2024/01/08 07:53:27;;;;;;;5.83;4.37;;;;;;;;;;4973520;28;20451;-74
2024/01/08 07:55:53;;;;;;;6.87;4.40;;;;;;;;;;4976980;28;20443;-74
2024/01/08 07:58:19;;;;;;;10.57;5.33;;;;;;;;;;4977067;28;20451;-74
2024/01/08 08:00:45;;;;;;;7.73;4.93;;;;;;;;;;4977387;28;20447;-73
2024/01/08 08:03:11;;;;;;;10.07;5.50;;;;;;;;;;4977198;28;20457;-73
2024/01/08 08:05:39;;;;;;;5.97;4.63;;;;;;;;;;4976953;28;20424;-73
2024/01/08 08:08:05;;;;;;;9.50;4.50;;;;;;;;;;4977129;28;20784;-73
2024/01/08 08:10:31;;;;;;;8.80;4.83;;;;;;;;;;4976803;28;20498;-73
2024/01/08 08:12:57;;;;;;;9.63;4.80;;;;;;;;;;4976999;28;20423;-73
2024/01/08 08:15:23;;;;;;;7.57;4.20;;;;;;;;;;4976900;28;20499;-73
2024/01/08 08:17:50;;;;;;;12.80;5.17;;;;;;;;;;4977054;28;20501;-73
2024/01/08 08:20:16;;;;;;;8.07;4.67;;;;;;;;;;4976849;28;20487;-73
2024/01/08 08:22:42;;;;;;;7.23;4.47;;;;;;;;;;4976690;28;20458;-73
2024/01/08 08:25:08;;;;;;;4.83;3.93;;;;;;;;;;4976564;28;20407;-74
2024/01/08 08:27:35;;;;;;;7.43;4.50;;;;;;;;;;4976605;28;20462;-73
2024/01/08 08:30:03;;;;;;;11.83;5.10;;;;;;;;;;4991778;28;20494;-73
2024/01/08 08:32:29;;;;;;;10.27;4.67;;;;;;;;;;4976873;28;20530;-73
2024/01/08 08:34:55;;;;;;;9.77;4.67;;;;;;;;;;4976274;28;20508;-73
2024/01/08 08:37:21;;;;;;;8.10;4.70;;;;;;;;;;4976284;28;20413;-73
2024/01/08 08:39:47;;;;;;;8.60;4.60;;;;;;;;;;4976023;28;20524;-74
2024/01/08 08:42:13;;;;;;;6.23;4.10;;;;;;;;;;4976310;28;20473;-73
2024/01/08 08:44:39;;;;;;;9.93;4.33;;;;;;;;;;4975883;28;20527;-74
2024/01/08 08:47:05;;;;;;;10.63;4.93;;;;;;;;;;4976134;28;20411;-73
2024/01/08 08:49:31;;;;;;;10.37;4.57;;;;;;;;;;4976579;28;20439;-73
2024/01/08 08:51:57;;;;;;;7.70;4.10;;;;;;;;;;4976209;28;20442;-74
2024/01/08 08:54:23;;;;;;;14.47;5.30;;;;;;;;;;4975741;28;20416;-74
2024/01/08 08:56:49;;;;;;;8.60;4.67;;;;;;;;;;4976218;28;20891;-73
2024/01/08 08:59:15;;;;;;;12.43;5.73;;;;;;;;;;4975777;28;20843;-74
2024/01/08 09:01:41;;;;;;;8.73;5.00;;;;;;;;;;4975701;28;20455;-74
2024/01/08 09:04:07;;;;;;;7.20;4.43;;;;;;;;;;4975625;28;20408;-74
2024/01/08 09:06:34;;;;;;;11.43;5.30;;;;;;;;;;4975761;28;20446;-74
2024/01/08 09:09:00;;;;;;;9.00;4.40;;;;;;;;;;4976156;28;20503;-73
2024/01/08 09:11:27;;;;;;;7.30;4.93;;;;;;;;;;4975799;28;20530;-73
2024/01/08 09:13:53;;;;;;;7.43;4.63;;;;;;;;;;4975394;28;20423;-74
2024/01/08 09:16:20;;;;;;;10.33;4.37;;;;;;;;;;4975657;28;20460;-73
2024/01/08 09:18:46;;;;;;;6.97;4.30;;;;;;;;;;4975997;28;20549;-73
2024/01/08 09:21:13;;;;;;;9.27;4.80;;;;;;;;;;4975601;28;20462;-74
2024/01/08 09:23:41;;;;;;;9.80;6.20;;;;;;;;;;4975387;28;20916;-73
2024/01/08 09:26:07;;;;;;;8.97;4.13;;;;;;;;;;4975767;28;20416;-74
2024/01/08 09:28:36;;;;;;;7.63;4.43;;;;;;;;;;4975785;28;20503;-74
2024/01/08 09:31:03;;;;;;;10.77;5.20;;;;;;;;;;4975242;28;20440;-74
2024/01/08 09:33:29;;;;;;;6.83;4.97;;;;;;;;;;4975304;28;20558;-74
2024/01/08 09:35:55;;;;;;;10.80;5.20;;;;;;;;;;4974953;28;20442;-74
2024/01/08 09:38:21;;;;;;;13.70;4.60;;;;;;;;;;4975167;28;20458;-74
2024/01/08 09:40:48;;;;;;;7.27;4.87;;;;;;;;;;4975027;28;20443;-74
2024/01/08 09:43:15;;;;;;;9.27;5.10;;;;;;;;;;4974945;28;20487;-74
2024/01/08 09:46:01;;;;;;;6.30;4.43;;;;;;;;;;4974940;28;20835;-74
2024/01/08 09:48:27;;;;;;;11.50;4.97;;;;;;;;;;4975116;28;20524;-73
2024/01/08 09:50:53;;;;;;;15.73;6.10;;;;;;;;;;4975020;28;20431;-73
2024/01/08 09:53:19;;;;;;;10.27;5.20;;;;;;;;;;4979199;28;20447;-72
2024/01/08 09:55:46;;;;;;;8.40;5.07;;;;;;;;;;4977409;28;20422;-73
2024/01/08 09:58:12;;;;;;;11.37;5.27;;;;;;;;;;4974753;28;20494;-74
2024/01/08 10:00:42;;;;;;;6.90;5.17;;;;;;;;;;4974879;28;20950;-74
2024/01/08 10:03:08;;;;;;;5.87;4.10;;;;;;;;;;4989909;28;20435;-74
2024/01/08 10:05:35;;;;;;;8.43;4.77;;;;;;;;;;4974374;28;20901;-74
2024/01/08 10:08:01;;;;;;;7.33;4.30;;;;;;;;;;4974740;28;20826;-74
2024/01/08 10:10:29;;;;;;;10.50;4.40;;;;;;;;;;4974592;28;20531;-73
2024/01/08 10:12:55;;;;;;;8.10;4.90;;;;;;;;;;4974715;28;20419;-74
2024/01/08 10:15:21;;;;;;;9.60;5.00;;;;;;;;;;4974504;28;20408;-74
2024/01/08 10:17:51;;;;;;;8.17;4.60;;;;;;;;;;4973567;28;20469;-74
2024/01/08 10:20:17;;;;;;;7.40;5.27;;;;;;;;;;4974357;28;20810;-74
2024/01/08 10:22:44;;;;;;;10.20;5.77;;;;;;;;;;4974186;28;20464;-73
2024/01/08 10:25:10;;;;;;;8.87;4.67;;;;;;;;;;4973991;28;20404;-74
2024/01/08 10:27:36;;;;;;;10.17;4.50;;;;;;;;;;4974319;28;20636;-74
2024/01/08 10:30:03;;;;;;;5.27;3.50;;;;;;;;;;4974358;28;20425;-74
2024/01/08 10:32:32;;;;;;;8.73;4.47;;;;;;;;;;4974046;28;20443;-74
2024/01/08 10:34:58;;;;;;;8.90;4.50;;;;;;;;;;4974285;28;20412;-73
2024/01/08 10:37:25;;;;;;;8.00;4.20;;;;;;;;;;4974394;28;20466;-73
2024/01/08 10:39:51;;;;;;;9.67;4.17;;;;;;;;;;4975709;28;21022;-73
2024/01/08 10:42:17;;;;;;;5.97;4.33;;;;;;;;;;4974044;28;20432;-73
2024/01/08 10:44:43;;;;;;;9.47;3.93;;;;;;;;;;4973920;28;20828;-73
2024/01/08 10:47:10;;;;;;;6.60;4.77;;;;;;;;;;4973967;28;20436;-73
2024/01/08 10:49:36;;;;;;;11.00;4.80;;;;;;;;;;4973955;28;20416;-73
2024/01/08 10:52:06;;;;;;;6.27;4.60;;;;;;;;;;4973713;28;20437;-73
2024/01/08 10:54:52;;;;;;;5.10;4.30;;;;;;;;;;4973887;28;20415;-73
2024/01/08 10:57:18;;;;;;;8.47;4.87;;;;;;;;;;4973527;28;20424;-73
2024/01/08 10:59:45;;;;;;;7.07;4.27;;;;;;;;;;4973708;28;20466;-72
2024/01/08 11:02:14;;;;;;;7.23;4.50;;;;;;;;;;4973557;28;20850;-73
2024/01/08 11:04:42;;;;;;;9.70;4.90;;;;;;;;;;4973514;28;20419;-73
2024/01/08 11:07:08;;;;;;;7.00;4.70;;;;;;;;;;4973897;28;20906;-73
2024/01/08 11:09:34;;;;;;;6.17;4.80;;;;;;;;;;4973790;28;20786;-73
2024/01/08 11:12:02;;;;;;;7.03;4.57;;;;;;;;;;4973752;28;20436;-73
2024/01/08 11:14:29;;;;;;;10.50;4.63;;;;;;;;;;4973297;28;20498;-72
2024/01/08 11:16:55;;;;;;;8.43;5.20;;;;;;;;;;4973806;28;20467;-74
2024/01/08 11:19:21;;;;;;;7.10;4.20;;;;;;;;;;4973156;28;20475;-74
2024/01/08 11:21:51;;;;;;;8.90;5.30;;;;;;;;;;4973225;28;20438;-75
2024/01/08 11:24:17;;;;;;;9.63;4.60;;;;;;;;;;4973335;28;20463;-72
2024/01/08 11:26:44;;;;;;;4.40;3.80;;;;;;;;;;4973316;28;20415;-73
2024/01/08 11:29:10;;;;;;;5.97;4.30;;;;;;;;;;4973723;28;20416;-73
2024/01/08 11:31:48;;;;;;;8.63;5.27;;;;;;;;;;4973116;28;20436;-72
2024/01/08 11:34:29;;;;;;;6.80;3.90;;;;;;;;;;4973137;28;20415;-73
2024/01/08 11:37:04;;;;;;;9.17;4.93;;;;;;;;;;4973187;28;20420;-72
2024/01/08 11:39:34;;;;;;;7.00;4.60;;;;;;;;;;4973191;28;20480;-73
2024/01/08 11:42:00;;;;;;;10.67;4.93;;;;;;;;;;4972790;28;20915;-72
2024/01/08 11:44:26;;;;;;;9.53;4.00;;;;;;;;;;4972885;28;20430;-74
2024/01/08 11:46:52;;;;;;;6.00;3.60;;;;;;;;;;4973190;28;20416;-74
2024/01/08 11:49:18;;;;;;;7.77;4.20;;;;;;;;;;4972953;28;20423;-74
2024/01/08 11:51:47;;;;;;;5.83;3.80;;;;;;;;;;4973148;28;20526;-74
2024/01/08 11:54:15;;;;;;;6.30;4.47;;;;;;;;;;4972754;28;20892;-74
2024/01/08 11:56:41;;;;;;;7.30;4.53;;;;;;;;;;4973021;28;20422;-74
2024/01/08 11:59:08;;;;;;;7.10;4.00;;;;;;;;;;4973241;28;20698;-73
2024/01/08 12:01:34;;;;;;;6.47;4.57;;;;;;;;;;4973126;28;21035;-73
2024/01/08 12:04:00;;;;;;;7.30;3.80;;;;;;;;;;4972760;28;20506;-73
2024/01/08 12:06:27;;;;;;;7.40;4.77;;;;;;;;;;4987791;28;20516;-73
2024/01/08 12:08:54;;;;;;;5.77;4.20;;;;;;;;;;4972998;28;20409;-72
2024/01/08 12:11:20;;;;;;;9.20;4.37;;;;;;;;;;4973056;28;20907;-73
2024/01/08 12:13:46;;;;;;;6.30;4.03;;;;;;;;;;4973564;28;20415;-74
2024/01/08 12:16:14;;;;;;;9.20;4.87;;;;;;;;;;4973111;28;20827;-74
2024/01/08 12:18:41;;;;;;;3.93;3.50;;;;;;;;;;4973121;28;20455;-74
2024/01/08 12:21:07;;;;;;;7.90;4.23;;;;;;;;;;4972907;28;20496;-73
2024/01/08 12:23:33;;;;;;;11.90;6.03;;;;;;;;;;4972667;28;20412;-73
2024/01/08 12:25:59;;;;;;;5.83;3.60;;;;;;;;;;4972581;28;20420;-73
2024/01/08 12:28:28;;;;;;;6.97;3.40;;;;;;;;;;4972831;28;20458;-73
2024/01/08 12:30:54;;;;;;;9.77;4.60;;;;;;;;;;4972547;28;20439;-74
2024/01/08 12:33:21;;;;;;;8.80;4.50;;;;;;;;;;4972802;28;20827;-74
2024/01/08 12:35:52;;;;;;;6.90;3.93;;;;;;;;;;4972583;28;20416;-74
2024/01/08 12:38:19;;;;;;;10.90;4.33;;;;;;;;;;4972682;28;20675;-73
2024/01/08 12:40:45;;;;;;;7.23;4.30;;;;;;;;;;4974740;28;20950;-74
2024/01/08 12:43:11;;;;;;;6.47;4.20;;;;;;;;;;4976222;28;20498;-73
2024/01/08 12:45:37;;;;;;;7.00;4.03;;;;;;;;;;4976102;28;20514;-74
2024/01/08 12:48:03;;;;;;;10.53;3.67;;;;;;;;;;4976391;28;20894;-74
2024/01/08 12:50:29;;;;;;;10.37;5.67;;;;;;;;;;4976645;28;20466;-73
2024/01/08 12:52:55;;;;;;;5.80;4.30;;;;;;;;;;4976462;28;20507;-73
2024/01/08 12:55:20;;;;;;;8.07;4.53;;;;;;;;;;4976487;28;20427;-73
2024/01/08 12:57:46;;;;;;;9.10;5.00;;;;;;;;;;4976036;28;20616;-75
2024/01/08 13:00:13;;;;;;;8.03;4.70;;;;;;;;;;4976129;28;20516;-72
2024/01/08 13:02:41;;;;;;;7.20;4.63;;;;;;;;;;4977224;28;20475;-73
2024/01/08 13:05:07;;;;;;;9.87;5.07;;;;;;;;;;4975779;28;20770;-73
2024/01/08 13:07:33;;;;;;;6.90;4.60;;;;;;;;;;4976394;28;20420;-73
2024/01/08 13:09:59;;;;;;;8.60;5.53;;;;;;;;;;4975846;28;20470;-73
2024/01/08 13:12:25;;;;;;;10.27;4.77;;;;;;;;;;4976547;28;20483;-73
2024/01/08 13:14:51;;;;;;;11.00;5.60;;;;;;;;;;4976089;28;20411;-74
2024/01/08 13:17:17;;;;;;;13.03;5.20;;;;;;;;;;4975848;28;20479;-75
2024/01/08 13:19:43;;;;;;;8.53;5.37;;;;;;;;;;4975656;28;20557;-75
2024/01/08 13:22:10;;;;;;;7.97;5.33;;;;;;;;;;4975615;28;20510;-73
2024/01/08 13:24:36;;;;;;;13.97;6.77;;;;;;;;;;4975570;28;20466;-73
2024/01/08 13:27:03;;;;;;;9.10;6.00;;;;;;;;;;4975582;28;20412;-74
2024/01/08 13:29:29;;;;;;;8.73;4.40;;;;;;;;;;4975542;28;20412;-74
2024/01/08 13:31:55;;;;;;;9.97;5.30;;;;;;;;;;4976416;28;20455;-74
2024/01/08 13:34:21;;;;;;;6.00;4.80;;;;;;;;;;4976140;28;20499;-74
2024/01/08 13:36:47;;;;;;;11.20;5.53;;;;;;;;;;4975722;28;20462;-75
2024/01/08 13:39:13;;;;;;;11.10;6.03;;;;;;;;;;4975182;28;21039;-75
2024/01/08 13:41:41;;;;;;;8.43;5.70;;;;;;;;;;4975852;28;20860;-75
2024/01/08 13:44:08;;;;;;;10.77;6.07;;;;;;;;;;4975065;28;20416;-74
2024/01/08 13:46:34;;;;;;;13.30;5.40;;;;;;;;;;4975007;28;20413;-74
2024/01/08 13:49:00;;;;;;;13.47;5.63;;;;;;;;;;4975267;28;20412;-73
2024/01/08 13:51:26;;;;;;;11.70;5.63;;;;;;;;;;4974199;28;20440;-74
2024/01/08 13:53:53;;;;;;;11.97;6.03;;;;;;;;;;4975043;28;20443;-74
2024/01/08 13:56:19;;;;;;;12.03;6.87;;;;;;;;;;4975121;28;20490;-75
2024/01/08 13:58:45;;;;;;;11.57;6.40;;;;;;;;;;4974970;28;20964;-73
2024/01/08 14:01:12;;;;;;;11.60;6.90;;;;;;;;;;4974656;28;21054;-73
2024/01/08 14:03:38;;;;;;;13.10;6.60;;;;;;;;;;4974701;28;20415;-74
2024/01/08 14:06:04;;;;;;;12.73;6.60;;;;;;;;;;4974452;28;20888;-74
2024/01/08 14:08:31;;;;;;;12.90;5.83;;;;;;;;;;4974996;28;20412;-73
2024/01/08 14:10:58;;;;;;;13.27;6.40;;;;;;;;;;4974939;28;20430;-73
2024/01/08 14:13:24;;;;;;;13.03;6.07;;;;;;;;;;4974999;28;20426;-74
2024/01/08 14:15:50;;;;;;;13.70;6.23;;;;;;;;;;4974594;28;20515;-74
2024/01/08 14:18:16;;;;;;;10.07;5.80;;;;;;;;;;4976003;28;20458;-72
2024/01/08 14:20:42;;;;;;;9.13;5.90;;;;;;;;;;4977204;28;20511;-73
2024/01/08 14:23:08;;;;;;;16.80;7.47;;;;;;;;;;4975515;28;20821;-74
2024/01/08 14:25:35;;;;;;;17.30;7.23;;;;;;;;;;4974555;28;20467;-74
2024/01/08 14:28:04;;;;;;;21.43;6.90;;;;;;;;;;4975054;28;20408;-74
2024/01/08 14:30:32;;;;;;;10.90;6.83;;;;;;;;;;4990021;28;20444;-72
2024/01/08 14:32:59;;;;;;;11.43;6.40;;;;;;;;;;4974472;28;20762;-73
2024/01/08 14:35:25;;;;;;;13.70;5.70;;;;;;;;;;4974060;28;20411;-73
2024/01/08 14:37:51;;;;;;;10.43;5.97;;;;;;;;;;4974421;28;20491;-72
2024/01/08 14:40:26;;;;;;;17.03;7.30;;;;;;;;;;4974319;28;20624;-72
2024/01/08 14:42:52;;;;;;;19.93;8.30;;;;;;;;;;4974017;28;20415;-74
2024/01/08 14:45:19;;;;;;;15.83;6.90;;;;;;;;;;4973779;28;20411;-74
2024/01/08 14:47:45;;;;;;;16.20;7.70;;;;;;;;;;4974257;28;20415;-73
2024/01/08 14:50:11;;;;;;;9.87;5.07;;;;;;;;;;4974123;28;20423;-73
2024/01/08 14:52:37;;;;;;;17.10;7.20;;;;;;;;;;4974116;28;20415;-73
2024/01/08 14:55:04;;;;;;;16.33;7.10;;;;;;;;;;4973688;28;20415;-73
2024/01/08 14:57:31;;;;;;;16.73;7.20;;;;;;;;;;4974502;28;20416;-73
2024/01/08 14:59:57;;;;;;;15.67;8.57;;;;;;;;;;4973691;28;20514;-74
2024/01/08 15:02:23;;;;;;;14.30;7.90;;;;;;;;;;4973324;28;20451;-74
2024/01/08 15:04:49;;;;;;;15.90;8.03;;;;;;;;;;4973549;28;20906;-72
2024/01/08 15:07:15;;;;;;;17.60;7.70;;;;;;;;;;4973745;28;20412;-73
2024/01/08 15:09:41;;;;;;;13.77;7.17;;;;;;;;;;4973687;28;20427;-73
2024/01/08 15:12:07;;;;;;;19.10;7.97;;;;;;;;;;4973563;28;20518;-74
2024/01/08 15:14:33;;;;;;;13.83;6.80;;;;;;;;;;4973329;28;20424;-74
2024/01/08 15:16:59;;;;;;;24.83;7.50;;;;;;;;;;4974000;28;20443;-74
2024/01/08 15:19:25;;;;;;;15.30;7.47;;;;;;;;;;4973459;28;20464;-73
2024/01/08 15:21:52;;;;;;;16.03;7.90;;;;;;;;;;4973415;28;20439;-74
2024/01/08 15:24:19;;;;;;;17.90;7.23;;;;;;;;;;4973302;28;20408;-73
2024/01/08 15:26:45;;;;;;;18.30;7.17;;;;;;;;;;4973590;28;20416;-73
2024/01/08 15:29:11;;;;;;;18.40;6.80;;;;;;;;;;4973332;28;20422;-73
2024/01/08 15:31:37;;;;;;;13.17;7.77;;;;;;;;;;4973796;28;20822;-74
2024/01/08 15:34:03;;;;;;;19.33;8.23;;;;;;;;;;4973384;28;20420;-75
2024/01/08 15:36:29;;;;;;;18.57;8.13;;;;;;;;;;4973443;28;20764;-75
2024/01/08 15:38:55;;;;;;;15.20;8.67;;;;;;;;;;4973352;28;20550;-74
2024/01/08 15:41:21;;;;;;;15.03;8.10;;;;;;;;;;4973136;28;20499;-74
2024/01/08 15:43:47;;;;;;;19.87;8.57;;;;;;;;;;4973020;28;20411;-74
2024/01/08 15:46:15;;;;;;;18.10;8.20;;;;;;;;;;4973113;28;20503;-74
2024/01/08 15:48:41;;;;;;;12.27;6.67;;;;;;;;;;4973307;28;20444;-73
2024/01/08 15:51:07;;;;;;;17.87;7.77;;;;;;;;;;4973349;28;20444;-73
2024/01/08 15:53:33;;;;;;;18.67;8.00;;;;;;;;;;4973255;28;20467;-73
2024/01/08 15:55:59;;;;;;;23.87;7.70;;;;;;;;;;4972947;28;20428;-73
2024/01/08 15:58:25;;;;;;;23.93;9.00;;;;;;;;;;4972896;28;20455;-74
2024/01/08 16:00:51;;;;;;;18.00;8.17;;;;;;;;;;4973021;28;20546;-73
2024/01/08 16:03:17;;;;;;;15.07;6.57;;;;;;;;;;4972975;28;20416;-74
2024/01/08 16:05:43;;;;;;;16.80;7.23;;;;;;;;;;4972875;28;20475;-73
2024/01/08 16:08:10;;;;;;;14.00;7.97;;;;;;;;;;4972914;28;20889;-73
2024/01/08 16:10:36;;;;;;;17.67;8.03;;;;;;;;;;4972709;28;20436;-74
2024/01/08 16:13:03;;;;;;;16.80;7.73;;;;;;;;;;4972946;28;20412;-73
2024/01/08 16:15:29;;;;;;;14.40;7.57;;;;;;;;;;4974919;28;20910;-73
2024/01/08 16:17:55;;;;;;;14.80;7.70;;;;;;;;;;4976678;28;20411;-74
2024/01/08 16:20:21;;;;;;;18.00;7.07;;;;;;;;;;4977061;28;20439;-73
2024/01/08 16:22:50;;;;;;;12.27;7.30;;;;;;;;;;4976765;28;20462;-74
2024/01/08 16:25:17;;;;;;;18.70;7.97;;;;;;;;;;4976587;28;20408;-74
2024/01/08 16:27:43;;;;;;;20.27;8.23;;;;;;;;;;4976702;28;20404;-74
2024/01/08 16:30:10;;;;;;;16.63;8.17;;;;;;;;;;4976721;28;21005;-74
2024/01/08 16:32:36;;;;;;;18.10;8.93;;;;;;;;;;4992111;28;20783;-73
2024/01/08 16:35:04;;;;;;;18.90;7.70;;;;;;;;;;4976683;28;20416;-73
2024/01/08 16:37:30;;;;;;;22.00;8.03;;;;;;;;;;4991551;28;20562;-74
2024/01/08 16:39:56;;;;;;;19.77;9.30;;;;;;;;;;4976343;28;20455;-74
2024/01/08 16:42:22;;;;;;;17.03;8.30;;;;;;;;;;4976658;28;20440;-74
2024/01/08 16:44:48;;;;;;;17.43;8.10;;;;;;;;;;4976519;28;20407;-74
2024/01/08 16:47:16;;;;;;;20.20;8.57;;;;;;;;;;4976361;28;20770;-74
2024/01/08 16:49:42;;;;;;;19.80;7.43;;;;;;;;;;4976612;28;20425;-73
2024/01/08 16:52:08;;;;;;;19.90;9.60;;;;;;;;;;4976251;28;20424;-73
2024/01/08 16:54:34;;;;;;;18.93;8.00;;;;;;;;;;4975959;28;20413;-73
2024/01/08 16:57:00;;;;;;;24.50;9.40;;;;;;;;;;4976151;28;20411;-72
2024/01/08 16:59:26;;;;;;;19.03;8.27;;;;;;;;;;4976015;28;20470;-72
2024/01/08 17:01:52;;;;;;;28.30;9.17;;;;;;;;;;4975944;28;20498;-72
2024/01/08 17:04:18;;;;;;;16.40;8.97;;;;;;;;;;4976129;28;20420;-73
2024/01/08 17:06:43;;;;;;;21.70;10.00;;;;;;;;;;4976267;28;20498;-74
2024/01/08 17:09:11;;;;;;;23.03;10.13;;;;;;;;;;4975761;28;20412;-74
2024/01/08 17:11:40;;;;;;;24.83;9.90;;;;;;;;;;4975722;28;20440;-74
2024/01/08 17:14:06;;;;;;;31.20;9.13;;;;;;;;;;4975891;28;20408;-73
2024/01/08 17:16:32;;;;;;;19.07;8.60;;;;;;;;;;4975822;28;20416;-73
2024/01/08 17:18:58;;;;;;;16.63;8.30;;;;;;;;;;4976217;28;20467;-74
2024/01/08 17:21:24;;;;;;;18.43;8.00;;;;;;;;;;4976967;28;20486;-73
2024/01/08 17:23:50;;;;;;;24.17;10.20;;;;;;;;;;4975647;28;20768;-74
2024/01/08 17:26:17;;;;;;;20.67;9.83;;;;;;;;;;4975567;28;20534;-73
2024/01/08 17:28:43;;;;;;;17.53;8.13;;;;;;;;;;4975611;28;20487;-73
2024/01/08 17:31:09;;;;;;;17.93;8.63;;;;;;;;;;4975326;28;20927;-73
2024/01/08 17:33:36;;;;;;;21.20;10.07;;;;;;;;;;4975689;28;20454;-74
2024/01/08 17:36:03;;;;;;;17.50;8.83;;;;;;;;;;4975528;28;20420;-73
2024/01/08 17:38:32;;;;;;;19.40;8.87;;;;;;;;;;4975849;28;20467;-73
2024/01/08 17:40:59;;;;;;;24.03;9.70;;;;;;;;;;4975326;28;20436;-74
2024/01/08 17:43:24;;;;;;;26.97;10.97;;;;;;;;;;4975291;28;20407;-73
2024/01/08 17:45:50;;;;;;;20.00;9.17;;;;;;;;;;4975675;28;20499;-74
2024/01/08 17:48:16;;;;;;;20.50;9.27;;;;;;;;;;4975437;28;20418;-73
2024/01/08 17:50:43;;;;;;;17.93;9.00;;;;;;;;;;4974919;28;20427;-74
2024/01/08 17:53:09;;;;;;;18.80;9.83;;;;;;;;;;4974917;28;20783;-73
2024/01/08 17:55:35;;;;;;;19.57;8.97;;;;;;;;;;4975221;28;20419;-73
2024/01/08 17:58:01;;;;;;;24.83;10.83;;;;;;;;;;4974907;28;20420;-74
2024/01/08 18:00:27;;;;;;;24.47;9.13;;;;;;;;;;4975146;28;20446;-74
2024/01/08 18:02:53;;;;;;;24.50;8.90;;;;;;;;;;4974941;28;20503;-73
2024/01/08 18:05:19;;;;;;;27.43;10.27;;;;;;;;;;4974615;28;20486;-74
2024/01/08 18:07:45;;;;;;;24.63;10.33;;;;;;;;;;4974930;28;20895;-73
2024/01/08 18:10:11;;;;;;;21.97;8.80;;;;;;;;;;4974577;28;20940;-74
2024/01/08 18:12:37;;;;;;;26.47;9.03;;;;;;;;;;4974869;28;20461;-73
2024/01/08 18:15:03;;;;;;;19.80;9.47;;;;;;;;;;4974783;28;20556;-75
2024/01/08 18:17:29;;;;;;;20.47;9.63;;;;;;;;;;4974641;28;20416;-74
2024/01/08 18:19:55;;;;;;;23.73;10.37;;;;;;;;;;4974660;28;20567;-74
2024/01/08 18:22:21;;;;;;;30.03;10.00;;;;;;;;;;4974647;28;20527;-74
2024/01/08 18:24:47;;;;;;;25.10;9.90;;;;;;;;;;4974508;28;20408;-74
2024/01/08 18:27:13;;;;;;;26.40;11.63;;;;;;;;;;4974544;28;20832;-74
2024/01/08 18:29:40;;;;;;;23.10;10.03;;;;;;;;;;4974489;28;20415;-74
2024/01/08 18:32:07;;;;;;;26.33;10.37;;;;;;;;;;4974491;28;20976;-74
2024/01/08 18:34:33;;;;;;;20.13;10.60;;;;;;;;;;4974231;28;20412;-74
2024/01/08 18:36:59;;;;;;;19.30;9.00;;;;;;;;;;4974073;28;20420;-74
2024/01/08 18:39:25;;;;;;;23.67;11.13;;;;;;;;;;4973977;28;20550;-74
2024/01/08 18:41:52;;;;;;;20.80;9.87;;;;;;;;;;4974443;28;20432;-74
2024/01/08 18:44:17;;;;;;;24.80;10.90;;;;;;;;;;4974707;28;20914;-74
2024/01/08 18:46:44;;;;;;;22.57;10.27;;;;;;;;;;4974318;28;20408;-74
2024/01/08 18:49:09;;;;;;;24.97;10.60;;;;;;;;;;4974148;28;20857;-74
2024/01/08 18:51:35;;;;;;;25.80;10.83;;;;;;;;;;4973946;28;20496;-74
2024/01/08 18:54:01;;;;;;;24.17;11.47;;;;;;;;;;4974043;28;20412;-74
2024/01/08 18:56:27;;;;;;;22.80;10.20;;;;;;;;;;4974113;28;20408;-74
2024/01/08 18:58:53;;;;;;;24.83;10.67;;;;;;;;;;4974105;28;20470;-74
2024/01/08 19:01:20;;;;;;;28.10;11.57;;;;;;;;;;4973870;28;20821;-74
2024/01/08 19:03:46;;;;;;;20.57;10.30;;;;;;;;;;4973617;28;20412;-75
2024/01/08 19:06:14;;;;;;;30.03;11.17;;;;;;;;;;4974025;28;20499;-74
2024/01/08 19:08:41;;;;;;;25.27;10.33;;;;;;;;;;4973857;28;20419;-74
2024/01/08 19:11:07;;;;;;;26.17;9.93;;;;;;;;;;4973990;28;20456;-73
2024/01/08 19:13:37;;;;;;;24.13;11.47;;;;;;;;;;4973850;28;20907;-74
2024/01/08 19:16:03;;;;;;;25.63;11.37;;;;;;;;;;4973359;28;20896;-74
2024/01/08 19:18:29;;;;;;;32.20;11.43;;;;;;;;;;4973784;28;20468;-74
2024/01/08 19:20:55;;;;;;;20.87;9.87;;;;;;;;;;4973446;28;20427;-74
2024/01/08 19:23:23;;;;;;;20.40;10.10;;;;;;;;;;4973647;28;20412;-74
2024/01/08 19:25:49;;;;;;;26.77;12.03;;;;;;;;;;4974050;28;20420;-74
2024/01/08 19:28:16;;;;;;;25.63;10.50;;;;;;;;;;4975037;28;20408;-73
2024/01/08 19:30:44;;;;;;;23.73;11.10;;;;;;;;;;4973379;28;20943;-74
2024/01/08 19:33:11;;;;;;;29.90;11.00;;;;;;;;;;4973504;28;20446;-74
2024/01/08 19:35:37;;;;;;;28.73;13.00;;;;;;;;;;4973195;28;20434;-74
2024/01/08 19:38:03;;;;;;;25.20;11.63;;;;;;;;;;4973307;28;20415;-74
2024/01/08 19:40:29;;;;;;;29.67;11.03;;;;;;;;;;4973450;28;20428;-74
2024/01/08 19:42:56;;;;;;;29.33;11.93;;;;;;;;;;4973320;28;20435;-74
2024/01/08 19:45:22;;;;;;;36.43;12.47;;;;;;;;;;4973176;28;20915;-72
2024/01/08 19:47:48;;;;;;;19.40;9.40;;;;;;;;;;4973160;28;20416;-73
2024/01/08 19:50:14;;;;;;;28.90;11.73;;;;;;;;;;4972022;28;20420;-73
2024/01/08 19:52:40;;;;;;;25.50;12.13;;;;;;;;;;4973189;28;20979;-73
2024/01/08 19:55:06;;;;;;;30.10;12.10;;;;;;;;;;4973068;28;20507;-74
2024/01/08 19:57:32;;;;;;;30.47;11.73;;;;;;;;;;4973360;28;20452;-74
2024/01/08 19:59:58;;;;;;;30.70;12.77;;;;;;;;;;4973145;28;20887;-75
2024/01/08 20:02:24;;;;;;;33.57;13.17;;;;;;;;;;4973265;28;20463;-74
2024/01/08 20:04:52;;;;;;;29.20;12.23;;;;;;;;;;4972902;28;20543;-73
2024/01/08 20:07:18;;;;;;;27.30;12.17;;;;;;;;;;4973345;28;20412;-74
2024/01/08 20:09:46;;;;;;;24.40;12.07;;;;;;;;;;4973082;28;20924;-74
2024/01/08 20:12:12;;;;;;;28.37;11.50;;;;;;;;;;4973676;28;20811;-74
2024/01/08 20:14:39;;;;;;;28.60;13.10;;;;;;;;;;4972711;28;20424;-73
2024/01/08 20:17:05;;;;;;;28.33;11.80;;;;;;;;;;4973076;28;20412;-74
2024/01/08 20:19:34;;;;;;;31.67;12.20;;;;;;;;;;4972995;28;20467;-74
2024/01/08 20:22:00;;;;;;;29.50;11.20;;;;;;;;;;4973122;28;20459;-75
2024/01/08 20:24:26;;;;;;;28.13;12.20;;;;;;;;;;4973410;28;20440;-75
2024/01/08 20:26:52;;;;;;;33.97;12.93;;;;;;;;;;4973047;28;20868;-74
2024/01/08 20:29:18;;;;;;;34.90;12.77;;;;;;;;;;4972678;28;20907;-74